sensor_id;sensor_type;location;lat;lon;timestamp;P1;durP1;ratioP1;P2;durP2;ratioP2
76848;SDS011;65814;51.134;16.980;2024-01-15T07:37:53;4.50;;;3.00;;
76848;SDS011;65814;51.134;16.980;2024-01-15T07:40:22;5.90;;;3.90;;
76848;SDS011;65814;51.134;16.980;2024-01-15T07:42:50;6.50;;;3.70;;
76848;SDS011;65814;51.134;16.980;2024-01-15T07:45:19;4.30;;;3.00;;
76848;SDS011;65814;51.134;16.980;2024-01-15T07:47:47;6.80;;;3.90;;
76848;SDS011;65814;51.134;16.980;2024-01-15T07:50:17;7.20;;;3.90;;
76848;SDS011;65814;51.134;16.980;2024-01-15T07:52:45;5.40;;;3.50;;
76848;SDS011;65814;51.134;16.980;2024-01-15T07:55:13;7.40;;;3.50;;
76848;SDS011;65814;51.134;16.980;2024-01-15T07:57:44;7.60;;;4.80;;
76848;SDS011;65814;51.134;16.980;2024-01-15T08:00:22;6.70;;;3.60;;
76848;SDS011;65814;51.134;16.980;2024-01-15T08:02:50;6.90;;;3.90;;
76848;SDS011;65814;51.134;16.980;2024-01-15T08:05:18;6.40;;;4.20;;
76848;SDS011;65814;51.134;16.980;2024-01-15T08:07:47;5.30;;;3.30;;
76848;SDS011;65814;51.134;16.980;2024-01-15T08:10:15;5.30;;;3.40;;
76848;SDS011;65814;51.134;16.980;2024-01-15T08:12:43;7.20;;;3.60;;
76848;SDS011;65814;51.134;16.980;2024-01-15T08:15:11;5.40;;;3.60;;
76848;SDS011;65814;51.134;16.980;2024-01-15T08:17:39;7.10;;;3.50;;
76848;SDS011;65814;51.134;16.980;2024-01-15T08:20:07;10.40;;;4.50;;
76848;SDS011;65814;51.134;16.980;2024-01-15T08:22:36;5.10;;;3.20;;
76848;SDS011;65814;51.134;16.980;2024-01-15T08:25:04;5.80;;;3.10;;
76848;SDS011;65814;51.134;16.980;2024-01-15T08:27:32;5.60;;;3.30;;
76848;SDS011;65814;51.134;16.980;2024-01-15T08:30:00;6.10;;;3.10;;
76848;SDS011;65814;51.134;16.980;2024-01-15T08:32:28;5.40;;;2.80;;
76848;SDS011;65814;51.134;16.980;2024-01-15T08:34:57;4.30;;;2.90;;
76848;SDS011;65814;51.134;16.980;2024-01-15T08:37:25;7.90;;;3.40;;
76848;SDS011;65814;51.134;16.980;2024-01-15T08:39:53;5.50;;;3.40;;
76848;SDS011;65814;51.134;16.980;2024-01-15T08:42:21;5.90;;;3.10;;
76848;SDS011;65814;51.134;16.980;2024-01-15T08:44:49;7.40;;;3.50;;
76848;SDS011;65814;51.134;16.980;2024-01-15T08:47:18;7.50;;;2.70;;
76848;SDS011;65814;51.134;16.980;2024-01-15T08:49:47;5.80;;;3.40;;
76848;SDS011;65814;51.134;16.980;2024-01-15T08:52:15;6.90;;;2.60;;
76848;SDS011;65814;51.134;16.980;2024-01-15T08:54:43;6.20;;;3.00;;
76848;SDS011;65814;51.134;16.980;2024-01-15T08:57:14;5.10;;;2.60;;
76848;SDS011;65814;51.134;16.980;2024-01-15T08:59:42;6.30;;;3.00;;
76848;SDS011;65814;51.134;16.980;2024-01-15T09:02:14;4.10;;;2.30;;
76848;SDS011;65814;51.134;16.980;2024-01-15T09:04:42;5.30;;;2.70;;
76848;SDS011;65814;51.134;16.980;2024-01-15T09:07:10;4.80;;;2.50;;
76848;SDS011;65814;51.134;16.980;2024-01-15T09:09:38;5.80;;;3.20;;
76848;SDS011;65814;51.134;16.980;2024-01-15T09:12:06;4.20;;;2.20;;
76848;SDS011;65814;51.134;16.980;2024-01-15T09:14:37;4.60;;;2.50;;
76848;SDS011;65814;51.134;16.980;2024-01-15T09:17:05;3.80;;;2.30;;
76848;SDS011;65814;51.134;16.980;2024-01-15T09:19:33;5.60;;;3.10;;
76848;SDS011;65814;51.134;16.980;2024-01-15T09:22:01;5.30;;;2.80;;
76848;SDS011;65814;51.134;16.980;2024-01-15T09:24:29;4.90;;;2.40;;
76848;SDS011;65814;51.134;16.980;2024-01-15T09:26:57;4.20;;;2.50;;
76848;SDS011;65814;51.134;16.980;2024-01-15T09:29:25;5.20;;;3.50;;
76848;SDS011;65814;51.134;16.980;2024-01-15T09:31:54;4.90;;;3.00;;
76848;SDS011;65814;51.134;16.980;2024-01-15T09:34:23;5.30;;;3.00;;
76848;SDS011;65814;51.134;16.980;2024-01-15T09:36:51;5.20;;;2.90;;
76848;SDS011;65814;51.134;16.980;2024-01-15T09:39:19;5.60;;;3.00;;
76848;SDS011;65814;51.134;16.980;2024-01-15T09:41:47;4.50;;;2.70;;
76848;SDS011;65814;51.134;16.980;2024-01-15T09:44:16;4.50;;;2.40;;
76848;SDS011;65814;51.134;16.980;2024-01-15T09:46:45;5.60;;;2.90;;
76848;SDS011;65814;51.134;16.980;2024-01-15T09:49:13;6.80;;;3.00;;
76848;SDS011;65814;51.134;16.980;2024-01-15T09:51:41;4.30;;;2.40;;
76848;SDS011;65814;51.134;16.980;2024-01-15T09:54:10;3.80;;;2.40;;
76848;SDS011;65814;51.134;16.980;2024-01-15T09:56:41;5.60;;;2.80;;
76848;SDS011;65814;51.134;16.980;2024-01-15T09:59:08;4.40;;;2.70;;
76848;SDS011;65814;51.134;16.980;2024-01-15T10:01:37;5.50;;;3.20;;
76848;SDS011;65814;51.134;16.980;2024-01-15T10:04:06;6.10;;;2.30;;
76848;SDS011;65814;51.134;16.980;2024-01-15T10:06:34;4.40;;;2.60;;
76848;SDS011;65814;51.134;16.980;2024-01-15T10:09:03;5.10;;;2.40;;
76848;SDS011;65814;51.134;16.980;2024-01-15T10:11:31;3.50;;;2.10;;
76848;SDS011;65814;51.134;16.980;2024-01-15T10:14:00;5.30;;;2.80;;
76848;SDS011;65814;51.134;16.980;2024-01-15T10:16:29;5.50;;;2.80;;
76848;SDS011;65814;51.134;16.980;2024-01-15T10:18:57;5.10;;;2.60;;
76848;SDS011;65814;51.134;16.980;2024-01-15T10:21:25;5.90;;;2.90;;
76848;SDS011;65814;51.134;16.980;2024-01-15T10:23:54;4.50;;;2.60;;
76848;SDS011;65814;51.134;16.980;2024-01-15T10:26:25;5.70;;;2.80;;
76848;SDS011;65814;51.134;16.980;2024-01-15T10:28:54;7.40;;;3.20;;
76848;SDS011;65814;51.134;16.980;2024-01-15T10:31:24;6.20;;;3.30;;
76848;SDS011;65814;51.134;16.980;2024-01-15T10:34:10;6.30;;;2.70;;
76848;SDS011;65814;51.134;16.980;2024-01-15T10:36:40;5.50;;;2.90;;
76848;SDS011;65814;51.134;16.980;2024-01-15T10:39:08;5.80;;;2.70;;
76848;SDS011;65814;51.134;16.980;2024-01-15T10:41:36;4.00;;;2.30;;
76848;SDS011;65814;51.134;16.980;2024-01-15T10:44:04;6.00;;;2.70;;
76848;SDS011;65814;51.134;16.980;2024-01-15T10:46:32;6.70;;;2.50;;
76848;SDS011;65814;51.134;16.980;2024-01-15T10:49:01;6.40;;;2.60;;
76848;SDS011;65814;51.134;16.980;2024-01-15T10:51:32;5.70;;;2.60;;
76848;SDS011;65814;51.134;16.980;2024-01-15T10:54:00;5.00;;;2.50;;
76848;SDS011;65814;51.134;16.980;2024-01-15T10:56:29;6.80;;;3.10;;
76848;SDS011;65814;51.134;16.980;2024-01-15T10:58:59;4.30;;;2.20;;
76848;SDS011;65814;51.134;16.980;2024-01-15T11:01:28;6.90;;;2.80;;
76848;SDS011;65814;51.134;16.980;2024-01-15T11:03:57;5.00;;;3.10;;
76848;SDS011;65814;51.134;16.980;2024-01-15T11:06:26;4.40;;;2.60;;
76848;SDS011;65814;51.134;16.980;2024-01-15T11:08:56;6.60;;;2.90;;
76848;SDS011;65814;51.134;16.980;2024-01-15T11:11:27;4.50;;;2.30;;
76848;SDS011;65814;51.134;16.980;2024-01-15T11:13:55;6.10;;;2.60;;
76848;SDS011;65814;51.134;16.980;2024-01-15T11:16:24;7.30;;;2.40;;
76848;SDS011;65814;51.134;16.980;2024-01-15T11:21:26;4.70;;;2.30;;
76848;SDS011;65814;51.134;16.980;2024-01-15T11:24:01;4.70;;;2.60;;
76848;SDS011;65814;51.134;16.980;2024-01-15T11:29:05;5.70;;;2.30;;
76848;SDS011;65814;51.134;16.980;2024-01-15T11:34:10;4.10;;;2.60;;
76848;SDS011;65814;51.134;16.980;2024-01-15T11:41:58;5.30;;;2.40;;
76848;SDS011;65814;51.134;16.980;2024-01-15T11:44:27;4.70;;;2.20;;
76848;SDS011;65814;51.134;16.980;2024-01-15T11:46:59;2.80;;;1.90;;
76848;SDS011;65814;51.134;16.980;2024-01-15T11:52:17;6.40;;;3.00;;
76848;SDS011;65814;51.134;16.980;2024-01-15T11:54:57;4.40;;;3.10;;
76848;SDS011;65814;51.134;16.980;2024-01-15T12:00:02;5.00;;;2.00;;
76848;SDS011;65814;51.134;16.980;2024-01-15T12:02:31;5.20;;;2.60;;
76848;SDS011;65814;51.134;16.980;2024-01-15T12:04:59;3.40;;;2.10;;
76848;SDS011;65814;51.134;16.980;2024-01-15T12:07:28;6.50;;;3.60;;
76848;SDS011;65814;51.134;16.980;2024-01-15T12:09:57;4.30;;;3.00;;
76848;SDS011;65814;51.134;16.980;2024-01-15T12:12:27;4.60;;;2.80;;
76848;SDS011;65814;51.134;16.980;2024-01-15T12:15:02;5.50;;;2.70;;
76848;SDS011;65814;51.134;16.980;2024-01-15T12:17:30;4.70;;;2.60;;
76848;SDS011;65814;51.134;16.980;2024-01-15T12:19:57;7.00;;;3.00;;
76848;SDS011;65814;51.134;16.980;2024-01-15T12:22:26;4.40;;;2.40;;
76848;SDS011;65814;51.134;16.980;2024-01-15T12:24:55;3.80;;;2.40;;
76848;SDS011;65814;51.134;16.980;2024-01-15T12:27:23;4.70;;;2.30;;
76848;SDS011;65814;51.134;16.980;2024-01-15T12:29:55;5.80;;;2.60;;
76848;SDS011;65814;51.134;16.980;2024-01-15T12:32:23;5.60;;;2.70;;
76848;SDS011;65814;51.134;16.980;2024-01-15T12:34:51;6.30;;;2.50;;
76848;SDS011;65814;51.134;16.980;2024-01-15T12:37:20;6.60;;;2.70;;
76848;SDS011;65814;51.134;16.980;2024-01-15T12:39:48;5.30;;;2.20;;
76848;SDS011;65814;51.134;16.980;2024-01-15T12:42:16;5.70;;;2.60;;
76848;SDS011;65814;51.134;16.980;2024-01-15T12:44:44;3.90;;;2.40;;
76848;SDS011;65814;51.134;16.980;2024-01-15T12:47:12;4.70;;;2.40;;
76848;SDS011;65814;51.134;16.980;2024-01-15T12:49:47;6.30;;;2.70;;
76848;SDS011;65814;51.134;16.980;2024-01-15T12:52:32;4.40;;;2.90;;
76848;SDS011;65814;51.134;16.980;2024-01-15T12:55:00;7.30;;;2.50;;
76848;SDS011;65814;51.134;16.980;2024-01-15T12:57:28;3.60;;;2.20;;
76848;SDS011;65814;51.134;16.980;2024-01-15T12:59:56;4.30;;;2.30;;
76848;SDS011;65814;51.134;16.980;2024-01-15T13:02:24;5.60;;;2.30;;
76848;SDS011;65814;51.134;16.980;2024-01-15T13:04:52;5.70;;;3.00;;
76848;SDS011;65814;51.134;16.980;2024-01-15T13:07:22;4.10;;;2.10;;
76848;SDS011;65814;51.134;16.980;2024-01-15T13:09:49;3.60;;;2.20;;
76848;SDS011;65814;51.134;16.980;2024-01-15T13:12:21;4.30;;;2.10;;
76848;SDS011;65814;51.134;16.980;2024-01-15T13:14:50;5.80;;;2.00;;
76848;SDS011;65814;51.134;16.980;2024-01-15T13:17:18;6.30;;;2.80;;
76848;SDS011;65814;51.134;16.980;2024-01-15T13:19:48;5.20;;;2.50;;
76848;SDS011;65814;51.134;16.980;2024-01-15T13:22:16;5.40;;;2.90;;
76848;SDS011;65814;51.134;16.980;2024-01-15T13:24:44;4.00;;;2.50;;
76848;SDS011;65814;51.134;16.980;2024-01-15T13:27:13;4.90;;;3.00;;
76848;SDS011;65814;51.134;16.980;2024-01-15T13:29:41;4.30;;;2.60;;
76848;SDS011;65814;51.134;16.980;2024-01-15T13:32:09;5.80;;;3.00;;
76848;SDS011;65814;51.134;16.980;2024-01-15T13:34:39;5.40;;;2.50;;
76848;SDS011;65814;51.134;16.980;2024-01-15T13:37:09;4.30;;;2.60;;
76848;SDS011;65814;51.134;16.980;2024-01-15T13:39:37;4.40;;;2.80;;
76848;SDS011;65814;51.134;16.980;2024-01-15T13:42:05;4.20;;;2.30;;
76848;SDS011;65814;51.134;16.980;2024-01-15T13:44:33;3.70;;;1.80;;
76848;SDS011;65814;51.134;16.980;2024-01-15T13:47:01;5.40;;;2.80;;
76848;SDS011;65814;51.134;16.980;2024-01-15T13:49:30;5.30;;;2.40;;
76848;SDS011;65814;51.134;16.980;2024-01-15T13:51:58;3.70;;;2.40;;
76848;SDS011;65814;51.134;16.980;2024-01-15T13:54:26;5.70;;;2.10;;
76848;SDS011;65814;51.134;16.980;2024-01-15T13:57:12;4.50;;;2.60;;
76848;SDS011;65814;51.134;16.980;2024-01-15T13:59:40;3.20;;;1.80;;
76848;SDS011;65814;51.134;16.980;2024-01-15T14:02:08;4.50;;;2.40;;
76848;SDS011;65814;51.134;16.980;2024-01-15T14:04:38;5.50;;;2.50;;
76848;SDS011;65814;51.134;16.980;2024-01-15T14:07:06;5.60;;;2.50;;
76848;SDS011;65814;51.134;16.980;2024-01-15T14:09:34;6.80;;;2.60;;
76848;SDS011;65814;51.134;16.980;2024-01-15T14:12:03;5.10;;;2.40;;
76848;SDS011;65814;51.134;16.980;2024-01-15T14:14:31;5.20;;;2.40;;
76848;SDS011;65814;51.134;16.980;2024-01-15T14:16:59;5.30;;;2.20;;
76848;SDS011;65814;51.134;16.980;2024-01-15T14:19:27;3.20;;;2.00;;
76848;SDS011;65814;51.134;16.980;2024-01-15T14:21:56;4.50;;;2.50;;
76848;SDS011;65814;51.134;16.980;2024-01-15T14:24:24;6.30;;;2.50;;
76848;SDS011;65814;51.134;16.980;2024-01-15T14:26:52;4.80;;;2.30;;
76848;SDS011;65814;51.134;16.980;2024-01-15T14:29:20;4.30;;;2.00;;
76848;SDS011;65814;51.134;16.980;2024-01-15T14:31:50;8.30;;;2.80;;
76848;SDS011;65814;51.134;16.980;2024-01-15T14:34:18;5.50;;;2.30;;
76848;SDS011;65814;51.134;16.980;2024-01-15T14:36:46;3.20;;;1.90;;
76848;SDS011;65814;51.134;16.980;2024-01-15T14:39:14;3.80;;;2.30;;
76848;SDS011;65814;51.134;16.980;2024-01-15T14:41:42;5.30;;;2.50;;
76848;SDS011;65814;51.134;16.980;2024-01-15T14:44:10;6.20;;;2.20;;
76848;SDS011;65814;51.134;16.980;2024-01-15T14:46:40;4.40;;;2.20;;
76848;SDS011;65814;51.134;16.980;2024-01-15T14:49:08;6.50;;;2.70;;
76848;SDS011;65814;51.134;16.980;2024-01-15T14:51:36;4.90;;;3.00;;
76848;SDS011;65814;51.134;16.980;2024-01-15T14:54:04;4.40;;;2.40;;
76848;SDS011;65814;51.134;16.980;2024-01-15T14:56:32;6.00;;;2.50;;
76848;SDS011;65814;51.134;16.980;2024-01-15T14:59:00;4.20;;;2.40;;
76848;SDS011;65814;51.134;16.980;2024-01-15T15:01:28;3.90;;;2.20;;
76848;SDS011;65814;51.134;16.980;2024-01-15T15:03:57;3.30;;;2.40;;
76848;SDS011;65814;51.134;16.980;2024-01-15T15:06:26;3.60;;;2.00;;
76848;SDS011;65814;51.134;16.980;2024-01-15T15:08:56;6.00;;;2.30;;
76848;SDS011;65814;51.134;16.980;2024-01-15T15:11:27;4.70;;;2.10;;
76848;SDS011;65814;51.134;16.980;2024-01-15T15:13:55;5.70;;;2.90;;
76848;SDS011;65814;51.134;16.980;2024-01-15T15:16:23;2.90;;;2.10;;
76848;SDS011;65814;51.134;16.980;2024-01-15T15:18:51;4.80;;;2.00;;
76848;SDS011;65814;51.134;16.980;2024-01-15T15:21:20;4.20;;;2.60;;
76848;SDS011;65814;51.134;16.980;2024-01-15T15:23:48;4.30;;;2.40;;
76848;SDS011;65814;51.134;16.980;2024-01-15T15:26:16;4.00;;;2.50;;
76848;SDS011;65814;51.134;16.980;2024-01-15T15:28:45;3.40;;;2.40;;
76848;SDS011;65814;51.134;16.980;2024-01-15T15:31:13;5.60;;;2.50;;
76848;SDS011;65814;51.134;16.980;2024-01-15T15:33:41;4.60;;;2.30;;
76848;SDS011;65814;51.134;16.980;2024-01-15T15:36:09;6.50;;;3.10;;
76848;SDS011;65814;51.134;16.980;2024-01-15T15:38:38;4.00;;;2.50;;
76848;SDS011;65814;51.134;16.980;2024-01-15T15:41:06;5.90;;;2.10;;
76848;SDS011;65814;51.134;16.980;2024-01-15T15:43:34;3.80;;;2.00;;
76848;SDS011;65814;51.134;16.980;2024-01-15T15:46:02;5.60;;;3.00;;
76848;SDS011;65814;51.134;16.980;2024-01-15T15:48:31;4.50;;;2.00;;
76848;SDS011;65814;51.134;16.980;2024-01-15T15:50:59;3.10;;;1.70;;
76848;SDS011;65814;51.134;16.980;2024-01-15T15:53:27;2.90;;;1.80;;
76848;SDS011;65814;51.134;16.980;2024-01-15T15:55:56;3.60;;;2.10;;
76848;SDS011;65814;51.134;16.980;2024-01-15T15:58:24;5.40;;;2.30;;
76848;SDS011;65814;51.134;16.980;2024-01-15T16:00:52;4.60;;;2.20;;
76848;SDS011;65814;51.134;16.980;2024-01-15T16:03:21;5.40;;;2.00;;
76848;SDS011;65814;51.134;16.980;2024-01-15T16:05:49;3.50;;;2.00;;
76848;SDS011;65814;51.134;16.980;2024-01-15T16:08:20;4.60;;;1.90;;
76848;SDS011;65814;51.134;16.980;2024-01-15T16:10:48;3.60;;;2.60;;
76848;SDS011;65814;51.134;16.980;2024-01-15T16:13:20;4.30;;;2.50;;
76848;SDS011;65814;51.134;16.980;2024-01-15T16:15:48;4.10;;;2.30;;
76848;SDS011;65814;51.134;16.980;2024-01-15T16:18:16;3.40;;;2.30;;
76848;SDS011;65814;51.134;16.980;2024-01-15T16:21:04;3.80;;;2.70;;
76848;SDS011;65814;51.134;16.980;2024-01-15T16:23:53;6.90;;;2.60;;
76848;SDS011;65814;51.134;16.980;2024-01-15T16:26:41;4.40;;;3.30;;
76848;SDS011;65814;51.134;16.980;2024-01-15T16:29:10;7.20;;;2.70;;
76848;SDS011;65814;51.134;16.980;2024-01-15T16:31:38;7.00;;;2.80;;
76848;SDS011;65814;51.134;16.980;2024-01-15T16:34:06;7.60;;;2.80;;
76848;SDS011;65814;51.134;16.980;2024-01-15T16:36:38;6.80;;;2.90;;
76848;SDS011;65814;51.134;16.980;2024-01-15T16:39:07;5.60;;;3.30;;
76848;SDS011;65814;51.134;16.980;2024-01-15T16:41:34;4.30;;;2.50;;
76848;SDS011;65814;51.134;16.980;2024-01-15T16:44:03;8.40;;;3.00;;
76848;SDS011;65814;51.134;16.980;2024-01-15T16:46:31;5.70;;;2.90;;
76848;SDS011;65814;51.134;16.980;2024-01-15T16:49:00;3.90;;;2.20;;
76848;SDS011;65814;51.134;16.980;2024-01-15T16:51:29;5.50;;;3.20;;
76848;SDS011;65814;51.134;16.980;2024-01-15T16:53:57;8.30;;;3.70;;
76848;SDS011;65814;51.134;16.980;2024-01-15T16:56:26;5.50;;;3.40;;
76848;SDS011;65814;51.134;16.980;2024-01-15T16:58:54;5.90;;;3.90;;
76848;SDS011;65814;51.134;16.980;2024-01-15T17:01:24;6.90;;;3.50;;
76848;SDS011;65814;51.134;16.980;2024-01-15T17:03:52;6.00;;;3.40;;
76848;SDS011;65814;51.134;16.980;2024-01-15T17:06:20;5.90;;;3.00;;
76848;SDS011;65814;51.134;16.980;2024-01-15T17:08:48;6.70;;;4.30;;
76848;SDS011;65814;51.134;16.980;2024-01-15T17:11:16;7.70;;;3.10;;
76848;SDS011;65814;51.134;16.980;2024-01-15T17:13:44;7.80;;;3.90;;
76848;SDS011;65814;51.134;16.980;2024-01-15T17:16:12;5.10;;;3.50;;
76848;SDS011;65814;51.134;16.980;2024-01-15T17:18:40;5.80;;;3.70;;
76848;SDS011;65814;51.134;16.980;2024-01-15T17:21:08;8.90;;;4.20;;
76848;SDS011;65814;51.134;16.980;2024-01-15T17:23:36;5.80;;;3.60;;
76848;SDS011;65814;51.134;16.980;2024-01-15T17:26:05;3.60;;;2.50;;
76848;SDS011;65814;51.134;16.980;2024-01-15T17:28:33;5.20;;;3.20;;
76848;SDS011;65814;51.134;16.980;2024-01-15T17:31:01;6.40;;;2.70;;
76848;SDS011;65814;51.134;16.980;2024-01-15T17:33:29;6.70;;;2.20;;
76848;SDS011;65814;51.134;16.980;2024-01-15T17:35:57;4.40;;;2.40;;
76848;SDS011;65814;51.134;16.980;2024-01-15T17:38:27;5.70;;;3.10;;
76848;SDS011;65814;51.134;16.980;2024-01-15T17:40:55;5.10;;;3.40;;
76848;SDS011;65814;51.134;16.980;2024-01-15T17:43:25;5.20;;;2.70;;
76848;SDS011;65814;51.134;16.980;2024-01-15T17:45:54;5.70;;;2.80;;
76848;SDS011;65814;51.134;16.980;2024-01-15T17:48:23;3.90;;;2.80;;
76848;SDS011;65814;51.134;16.980;2024-01-15T17:50:51;5.80;;;3.40;;
76848;SDS011;65814;51.134;16.980;2024-01-15T17:53:19;5.60;;;2.80;;
76848;SDS011;65814;51.134;16.980;2024-01-15T17:55:48;5.00;;;3.00;;
76848;SDS011;65814;51.134;16.980;2024-01-15T17:58:17;4.10;;;2.60;;
76848;SDS011;65814;51.134;16.980;2024-01-15T18:00:45;3.80;;;2.60;;
76848;SDS011;65814;51.134;16.980;2024-01-15T18:03:13;5.60;;;3.10;;
76848;SDS011;65814;51.134;16.980;2024-01-15T18:05:41;6.80;;;3.10;;
76848;SDS011;65814;51.134;16.980;2024-01-15T18:08:28;6.60;;;3.20;;
76848;SDS011;65814;51.134;16.980;2024-01-15T18:10:57;6.00;;;2.70;;
76848;SDS011;65814;51.134;16.980;2024-01-15T18:13:25;3.90;;;3.20;;
76848;SDS011;65814;51.134;16.980;2024-01-15T18:15:56;3.30;;;2.60;;
76848;SDS011;65814;51.134;16.980;2024-01-15T18:18:25;5.10;;;2.60;;
76848;SDS011;65814;51.134;16.980;2024-01-15T18:20:53;5.70;;;2.70;;
76848;SDS011;65814;51.134;16.980;2024-01-15T18:23:21;5.10;;;3.50;;
76848;SDS011;65814;51.134;16.980;2024-01-15T18:25:50;4.60;;;3.00;;
76848;SDS011;65814;51.134;16.980;2024-01-15T18:28:18;3.70;;;2.60;;
76848;SDS011;65814;51.134;16.980;2024-01-15T18:30:46;4.60;;;3.40;;
76848;SDS011;65814;51.134;16.980;2024-01-15T18:33:14;4.00;;;2.80;;
76848;SDS011;65814;51.134;16.980;2024-01-15T18:35:42;5.90;;;2.80;;
76848;SDS011;65814;51.134;16.980;2024-01-15T18:38:10;5.50;;;3.20;;
76848;SDS011;65814;51.134;16.980;2024-01-15T18:40:38;4.20;;;2.70;;
76848;SDS011;65814;51.134;16.980;2024-01-15T18:43:07;9.90;;;4.00;;
76848;SDS011;65814;51.134;16.980;2024-01-15T18:45:35;8.10;;;4.50;;
76848;SDS011;65814;51.134;16.980;2024-01-15T18:48:03;6.90;;;3.70;;
76848;SDS011;65814;51.134;16.980;2024-01-15T18:50:32;5.60;;;3.20;;
76848;SDS011;65814;51.134;16.980;2024-01-15T18:53:00;7.30;;;4.20;;
76848;SDS011;65814;51.134;16.980;2024-01-15T18:55:28;6.00;;;3.50;;
76848;SDS011;65814;51.134;16.980;2024-01-15T18:57:56;6.00;;;3.50;;
76848;SDS011;65814;51.134;16.980;2024-01-15T19:00:27;7.70;;;4.00;;
76848;SDS011;65814;51.134;16.980;2024-01-15T19:02:55;5.70;;;3.30;;
76848;SDS011;65814;51.134;16.980;2024-01-15T19:05:26;7.60;;;3.50;;
76848;SDS011;65814;51.134;16.980;2024-01-15T19:07:54;6.30;;;3.50;;
76848;SDS011;65814;51.134;16.980;2024-01-15T19:10:22;6.20;;;4.20;;
76848;SDS011;65814;51.134;16.980;2024-01-15T19:12:50;6.70;;;3.30;;
76848;SDS011;65814;51.134;16.980;2024-01-15T19:15:18;5.40;;;3.30;;
76848;SDS011;65814;51.134;16.980;2024-01-15T19:17:47;4.90;;;2.80;;
76848;SDS011;65814;51.134;16.980;2024-01-15T19:20:17;5.80;;;3.20;;
76848;SDS011;65814;51.134;16.980;2024-01-15T19:22:46;5.10;;;3.20;;
76848;SDS011;65814;51.134;16.980;2024-01-15T19:25:14;5.60;;;2.60;;
76848;SDS011;65814;51.134;16.980;2024-01-15T19:27:42;4.80;;;3.20;;
76848;SDS011;65814;51.134;16.980;2024-01-15T19:30:12;4.10;;;3.20;;
76848;SDS011;65814;51.134;16.980;2024-01-15T19:32:44;4.70;;;3.10;;
76848;SDS011;65814;51.134;16.980;2024-01-15T19:35:12;4.80;;;2.90;;
76848;SDS011;65814;51.134;16.980;2024-01-15T19:37:40;6.60;;;3.40;;
76848;SDS011;65814;51.134;16.980;2024-01-15T19:40:09;5.30;;;3.10;;
76848;SDS011;65814;51.134;16.980;2024-01-15T19:42:37;5.90;;;3.60;;
76848;SDS011;65814;51.134;16.980;2024-01-15T19:45:06;4.20;;;2.70;;
76848;SDS011;65814;51.134;16.980;2024-01-15T19:47:34;6.80;;;3.60;;
76848;SDS011;65814;51.134;16.980;2024-01-15T19:50:02;5.60;;;3.40;;
76848;SDS011;65814;51.134;16.980;2024-01-15T19:52:30;5.80;;;3.30;;
76848;SDS011;65814;51.134;16.980;2024-01-15T19:54:58;6.90;;;3.40;;
76848;SDS011;65814;51.134;16.980;2024-01-15T19:57:26;4.60;;;3.10;;
76848;SDS011;65814;51.134;16.980;2024-01-15T19:59:55;6.20;;;2.50;;
76848;SDS011;65814;51.134;16.980;2024-01-15T20:02:23;5.40;;;2.80;;
76848;SDS011;65814;51.134;16.980;2024-01-15T20:04:51;7.50;;;3.00;;
76848;SDS011;65814;51.134;16.980;2024-01-15T20:07:19;6.00;;;3.60;;
76848;SDS011;65814;51.134;16.980;2024-01-15T20:09:47;7.60;;;4.50;;
76848;SDS011;65814;51.134;16.980;2024-01-15T20:12:14;6.80;;;4.00;;
76848;SDS011;65814;51.134;16.980;2024-01-15T20:14:43;5.70;;;3.60;;
76848;SDS011;65814;51.134;16.980;2024-01-15T20:17:11;7.70;;;4.70;;
76848;SDS011;65814;51.134;16.980;2024-01-15T20:19:40;7.10;;;4.40;;
76848;SDS011;65814;51.134;16.980;2024-01-15T20:22:08;4.70;;;3.70;;
76848;SDS011;65814;51.134;16.980;2024-01-15T20:24:36;10.10;;;4.50;;
76848;SDS011;65814;51.134;16.980;2024-01-15T20:27:04;8.80;;;4.50;;
76848;SDS011;65814;51.134;16.980;2024-01-15T20:29:33;7.40;;;4.20;;
76848;SDS011;65814;51.134;16.980;2024-01-15T20:32:01;6.40;;;4.20;;
76848;SDS011;65814;51.134;16.980;2024-01-15T20:34:29;8.70;;;3.90;;
76848;SDS011;65814;51.134;16.980;2024-01-15T20:36:57;6.40;;;3.70;;
76848;SDS011;65814;51.134;16.980;2024-01-15T20:39:25;5.90;;;4.40;;
76848;SDS011;65814;51.134;16.980;2024-01-15T20:41:53;6.50;;;3.80;;
76848;SDS011;65814;51.134;16.980;2024-01-15T20:44:21;7.30;;;4.00;;
76848;SDS011;65814;51.134;16.980;2024-01-15T20:46:50;7.80;;;4.40;;
76848;SDS011;65814;51.134;16.980;2024-01-15T20:49:18;9.40;;;5.00;;
76848;SDS011;65814;51.134;16.980;2024-01-15T20:51:47;7.40;;;5.30;;
76848;SDS011;65814;51.134;16.980;2024-01-15T20:54:15;7.30;;;4.70;;
76848;SDS011;65814;51.134;16.980;2024-01-15T20:56:43;6.00;;;4.10;;
76848;SDS011;65814;51.134;16.980;2024-01-15T20:59:12;6.50;;;4.40;;
76848;SDS011;65814;51.134;16.980;2024-01-15T21:01:40;6.50;;;4.50;;
76848;SDS011;65814;51.134;16.980;2024-01-15T21:04:08;8.10;;;4.70;;
76848;SDS011;65814;51.134;16.980;2024-01-15T21:06:38;10.20;;;5.90;;
76848;SDS011;65814;51.134;16.980;2024-01-15T21:09:06;8.40;;;6.00;;
76848;SDS011;65814;51.134;16.980;2024-01-15T21:11:34;9.20;;;4.70;;
76848;SDS011;65814;51.134;16.980;2024-01-15T21:14:02;7.10;;;4.70;;
76848;SDS011;65814;51.134;16.980;2024-01-15T21:16:30;6.60;;;4.20;;
76848;SDS011;65814;51.134;16.980;2024-01-15T21:18:58;8.20;;;5.00;;
76848;SDS011;65814;51.134;16.980;2024-01-15T21:21:29;8.00;;;4.10;;
76848;SDS011;65814;51.134;16.980;2024-01-15T21:23:58;13.90;;;6.60;;
76848;SDS011;65814;51.134;16.980;2024-01-15T21:26:27;8.50;;;5.50;;
76848;SDS011;65814;51.134;16.980;2024-01-15T21:28:55;10.80;;;5.20;;
76848;SDS011;65814;51.134;16.980;2024-01-15T21:31:23;8.00;;;5.40;;
76848;SDS011;65814;51.134;16.980;2024-01-15T21:33:51;7.30;;;4.60;;
76848;SDS011;65814;51.134;16.980;2024-01-15T21:36:19;8.10;;;5.40;;
76848;SDS011;65814;51.134;16.980;2024-01-15T21:38:48;10.30;;;6.00;;
76848;SDS011;65814;51.134;16.980;2024-01-15T21:41:16;12.10;;;5.40;;
76848;SDS011;65814;51.134;16.980;2024-01-15T21:43:44;6.50;;;4.70;;
76848;SDS011;65814;51.134;16.980;2024-01-15T21:46:12;6.20;;;4.10;;
76848;SDS011;65814;51.134;16.980;2024-01-15T21:48:40;7.00;;;5.30;;
76848;SDS011;65814;51.134;16.980;2024-01-15T21:51:10;8.30;;;4.90;;
76848;SDS011;65814;51.134;16.980;2024-01-15T21:53:46;8.40;;;5.20;;
76848;SDS011;65814;51.134;16.980;2024-01-15T21:56:14;8.30;;;4.70;;
76848;SDS011;65814;51.134;16.980;2024-01-15T21:58:43;7.00;;;4.60;;
76848;SDS011;65814;51.134;16.980;2024-01-15T22:01:11;5.40;;;4.50;;
76848;SDS011;65814;51.134;16.980;2024-01-15T22:03:39;8.00;;;5.30;;
76848;SDS011;65814;51.134;16.980;2024-01-15T22:06:07;10.60;;;5.80;;
76848;SDS011;65814;51.134;16.980;2024-01-15T22:08:37;8.90;;;5.00;;
76848;SDS011;65814;51.134;16.980;2024-01-15T22:11:05;7.10;;;4.90;;
76848;SDS011;65814;51.134;16.980;2024-01-15T22:13:33;7.90;;;5.30;;
76848;SDS011;65814;51.134;16.980;2024-01-15T22:16:02;8.10;;;4.50;;
76848;SDS011;65814;51.134;16.980;2024-01-15T22:18:30;5.80;;;4.00;;
76848;SDS011;65814;51.134;16.980;2024-01-15T22:21:00;8.50;;;4.70;;
76848;SDS011;65814;51.134;16.980;2024-01-15T22:23:28;6.80;;;4.40;;
76848;SDS011;65814;51.134;16.980;2024-01-15T22:25:56;10.50;;;5.20;;
76848;SDS011;65814;51.134;16.980;2024-01-15T22:28:24;7.70;;;4.80;;
76848;SDS011;65814;51.134;16.980;2024-01-15T22:30:52;8.80;;;4.90;;
76848;SDS011;65814;51.134;16.980;2024-01-15T22:33:20;6.40;;;3.70;;
76848;SDS011;65814;51.134;16.980;2024-01-15T22:35:48;6.50;;;3.50;;
76848;SDS011;65814;51.134;16.980;2024-01-15T22:38:19;6.60;;;3.60;;